^^
B2 Weather Station Historical Data
Daily Summary for December 19, 2018 Units:  English    Metric   Both
Daily Weekly Monthly Yearly Custom
  High: Low: Average:
Temperature: 49 °F 28.6 °F 38.6 °F
Dew Point: 42.8 °F 25.1 °F 34.5 °F
Humidity: 91% 73% 85%
Wind Speed: 13.8mph 0mph 6.4mph
Wind Gust: 8.3mph - -
Wind- - South
Pressure: 30.04 in 29.76 in -
Precipitation: 0 in    
Historical Graphs
 
 
Tabular Data for December 19, 2018
Time Temperature Dew Point Pressure Wind Wind Speed Wind Gust Humidity Rainfall Rate (Hourly) solar
00:04 29.6 °F 26.2 °F 30.04 in SSE 1.2 mph 0.1 mph 87% 0 in 0.00 W/m2
00:09 29.5 °F 26.1 °F 30.04 in SSE 1.2 mph 0.7 mph 87% 0 in 0.00 W/m2
00:14 29.6 °F 26.2 °F 30.04 in South 3 mph 0.9 mph 87% 0 in 0.00 W/m2
00:19 29.9 °F 26.5 °F 30.04 in South 2.3 mph 0.7 mph 87% 0 in 0.00 W/m2
00:24 30.3 °F 26.9 °F 30.04 in SW 3.5 mph 1.8 mph 87% 0 in 0.00 W/m2
00:29 30.8 °F 27.1 °F 30.04 in SSW 3.5 mph 1.4 mph 86% 0 in 0.00 W/m2
00:34 31.1 °F 27.1 °F 30.04 in South 3.5 mph 1.5 mph 85% 0 in 0.00 W/m2
00:39 31.1 °F 26.8 °F 30.04 in South 1.2 mph 0.5 mph 84% 0 in 0.00 W/m2
00:44 31.1 °F 26.8 °F 30.04 in South 2.3 mph 1 mph 84% 0 in 0.00 W/m2
00:49 31 °F 26.4 °F 30.03 in South 2.3 mph 0.5 mph 83% 0 in 0.00 W/m2
00:54 30.9 °F 26.3 °F 30.03 in South 3 mph 1.8 mph 83% 0 in 0.00 W/m2
00:59 30.8 °F 26.2 °F 30.03 in South 2.3 mph 0.5 mph 83% 0 in 0.00 W/m2
01:04 30.4 °F 25.9 °F 30.03 in Calm     83% 0 in 0.00 W/m2
01:09 30.2 °F 25.9 °F 30.03 in South 2.3 mph 1 mph 84% 0 in 0.00 W/m2
01:14 30 °F 25.8 °F 30.03 in South 1.2 mph 0.2 mph 84% 0 in 0.00 W/m2
01:19 29.9 °F 25.7 °F 30.03 in South 3.5 mph 1 mph 84% 0 in 0.00 W/m2
01:24 29.9 °F 25.7 °F 30.03 in South 2.3 mph 1.6 mph 84% 0 in 0.00 W/m2
01:29 29.8 °F 25.8 °F 30.03 in South 2.3 mph 0.9 mph 85% 0 in 0.00 W/m2
01:34 29.7 °F 25.7 °F 30.03 in South 2.3 mph 0.7 mph 85% 0 in 0.00 W/m2
01:39 29.7 °F 25.7 °F 30.03 in South 2.3 mph 1.7 mph 85% 0 in 0.00 W/m2
01:44 29.6 °F 25.6 °F 30.03 in South 2.3 mph 0.5 mph 85% 0 in 0.00 W/m2
01:49 29.5 °F 25.8 °F 30.03 in South 2.3 mph 1.2 mph 86% 0 in 0.00 W/m2
01:54 29.3 °F 25.4 °F 30.03 in South 2.3 mph 1 mph 85% 0 in 0.00 W/m2
01:59 29.1 °F 25.4 °F 30.03 in South 2.3 mph 0.1 mph 86% 0 in 0.00 W/m2
02:04 29 °F 25.3 °F 30.03 in South 2.3 mph 0.7 mph 86% 0 in 0.00 W/m2
02:09 28.8 °F 25.1 °F 30.03 in South 2.3 mph 2 mph 86% 0 in 0.00 W/m2
02:14 28.7 °F 25.3 °F 30.03 in South 3.5 mph 2.3 mph 87% 0 in 0.00 W/m2
02:19 28.7 °F 25.6 °F 30.03 in South 2.3 mph 0.6 mph 88% 0 in 0.00 W/m2
02:24 28.6 °F 25.2 °F 30.03 in Calm     87% 0 in 0.00 W/m2
02:29 28.6 °F 25.5 °F 30.03 in South 1.2 mph 0.9 mph 88% 0 in 0.00 W/m2
02:34 28.8 °F 25.7 °F 30.03 in South 2.3 mph 0.4 mph 88% 0 in 0.00 W/m2
02:39 28.9 °F 25.8 °F 30.03 in South 2.3 mph 0.4 mph 88% 0 in 0.00 W/m2
02:44 29 °F 25.9 °F 30.02 in South 2.3 mph 1.5 mph 88% 0 in 0.00 W/m2
02:49 29.1 °F 26 °F 30.02 in SSE 4.6 mph 2.8 mph 88% 0 in 0.00 W/m2
02:54 29.4 °F 26.6 °F 30.02 in SSE 3.5 mph 1.8 mph 89% 0 in 0.00 W/m2
02:59 29.6 °F 26.8 °F 30.02 in South 3.5 mph 1.6 mph 89% 0 in 0.00 W/m2
03:04 29.7 °F 26.9 °F 30.01 in South 3.5 mph 2.2 mph 89% 0 in 0.00 W/m2
03:09 29.8 °F 27 °F 30.01 in SSE 4 mph 3.3 mph 89% 0 in 0.00 W/m2
03:14 29.8 °F 27 °F 30.01 in SSE 3.5 mph 2.6 mph 89% 0 in 0.00 W/m2
03:19 29.8 °F 27 °F 30.01 in SSE 3.5 mph 2.7 mph 89% 0 in 0.00 W/m2
03:24 29.9 °F 27.3 °F 30.01 in South 4.6 mph 3.2 mph 90% 0 in 0.00 W/m2
03:29 30.1 °F 27.5 °F 30.01 in SSE 5 mph 2.8 mph 90% 0 in 0.00 W/m2
03:34 30.3 °F 27.7 °F 30.00 in SSE 4.6 mph 2.6 mph 90% 0 in 0.00 W/m2
03:39 30.4 °F 27.8 °F 30.00 in South 4 mph 2.7 mph 90% 0 in 0.00 W/m2
03:44 30.5 °F 27.9 °F 30.01 in South 3.5 mph 2.1 mph 90% 0 in 0.00 W/m2
03:49 30.5 °F 27.9 °F 30.00 in South 3.5 mph 3.1 mph 90% 0 in 0.00 W/m2
03:54 30.5 °F 27.9 °F 30.00 in South 3.5 mph 2.8 mph 90% 0 in 0.00 W/m2
03:59 30.5 °F 27.9 °F 30.00 in South 3.5 mph 2.6 mph 90% 0 in 0.00 W/m2
04:04 30.5 °F 27.9 °F 30.00 in South 4.6 mph 2.7 mph 90% 0 in 0.00 W/m2
04:09 30.4 °F 27.8 °F 29.99 in SSE 3.5 mph 3.2 mph 90% 0 in 0.00 W/m2
04:14 30.4 °F 27.8 °F 29.99 in SSE 3.5 mph 3 mph 90% 0 in 0.00 W/m2
04:19 30.6 °F 28.3 °F 29.99 in SSE 5.8 mph 3.8 mph 91% 0 in 0.00 W/m2
04:24 30.8 °F 28.5 °F 29.99 in SSE 4 mph 3 mph 91% 0 in 0.00 W/m2
04:29 30.9 °F 28.3 °F 29.99 in SSE 3.5 mph 2.7 mph 90% 0 in 0.00 W/m2
04:34 31 °F 28.4 °F 29.99 in SSE 4.6 mph 3.6 mph 90% 0 in 0.00 W/m2
04:39 31.2 °F 28.6 °F 29.98 in SSE 4.6 mph 3.9 mph 90% 0 in 0.00 W/m2
04:44 31.3 °F 29 °F 29.98 in SSE 6.9 mph 4.4 mph 91% 0 in 0.00 W/m2
04:49 31.4 °F 29.1 °F 29.98 in SSE 5.8 mph 3.5 mph 91% 0 in 0.00 W/m2
04:54 31.6 °F 29.3 °F 29.98 in SSE 5 mph 4.7 mph 91% 0 in 0.00 W/m2
04:59 31.9 °F 29.6 °F 29.98 in SSE 5.8 mph 2.8 mph 91% 0 in 0.00 W/m2
05:04 32.1 °F 29.5 °F 29.97 in South 5 mph 3.1 mph 90% 0 in 0.00 W/m2
05:09 32.3 °F 29.7 °F 29.97 in South 4.6 mph 3 mph 90% 0 in 0.00 W/m2
05:14 32.4 °F 29.8 °F 29.97 in South 4.6 mph 3.1 mph 90% 0 in 0.00 W/m2
05:19 32.6 °F 30 °F 29.97 in South 5.8 mph 4.5 mph 90% 0 in 0.00 W/m2
05:24 32.9 °F 30 °F 29.97 in South 5 mph 3.3 mph 89% 0 in 0.00 W/m2
05:29 33.3 °F 30.4 °F 29.97 in South 7 mph 3.7 mph 89% 0 in 0.00 W/m2
05:35 33.7 °F 30.5 °F 29.97 in South 5.8 mph 2.7 mph 88% 0 in 0.00 W/m2
05:40 33.9 °F 30.4 °F 29.97 in SSW 5.8 mph 4 mph 87% 0 in 0.00 W/m2
05:44 34.1 °F 30.4 °F 29.97 in South 5.8 mph 3.7 mph 86% 0 in 0.00 W/m2
05:49 34.2 °F 30.4 °F 29.97 in South 5 mph 4.4 mph 86% 0 in 0.00 W/m2
05:54 34.2 °F 30.4 °F 29.97 in South 4.6 mph 3.3 mph 86% 0 in 0.00 W/m2
05:59 34.2 °F 30.4 °F 29.97 in South 5.8 mph 3.9 mph 86% 0 in 0.00 W/m2
06:04 34 °F 30 °F 29.97 in South 6.9 mph 3.6 mph 85% 0 in 0.00 W/m2
06:09 33.8 °F 30.1 °F 29.96 in South 4.6 mph 2.7 mph 86% 0 in 0.00 W/m2
06:14 33.6 °F 29.9 °F 29.96 in South 3.5 mph 2.8 mph 86% 0 in 0.00 W/m2
06:19 33.4 °F 29.7 °F 29.96 in South 4 mph 2 mph 86% 0 in 0.00 W/m2
06:24 33.2 °F 29.8 °F 29.96 in South 3.5 mph 1.1 mph 87% 0 in 0.00 W/m2
06:29 33.2 °F 29.8 °F 29.96 in South 3.5 mph 2.6 mph 87% 0 in 0.00 W/m2
06:34 33.1 °F 29.7 °F 29.96 in South 3.5 mph 1.5 mph 87% 0 in 0.00 W/m2
06:39 33 °F 29.6 °F 29.96 in South 4.6 mph 3.4 mph 87% 0 in 0.00 W/m2
06:44 33 °F 29.6 °F 29.96 in South 3.5 mph 2.2 mph 87% 0 in 0.00 W/m2
06:49 32.9 °F 29.7 °F 29.96 in South 6 mph 4 mph 88% 0 in 0.00 W/m2
06:54 32.9 °F 29.7 °F 29.96 in South 5.8 mph 3.1 mph 88% 0 in 0.00 W/m2
06:59 33 °F 29.8 °F 29.96 in South 4 mph 3.9 mph 88% 0 in 0.00 W/m2
07:04 33.1 °F 29.9 °F 29.95 in South 4.6 mph 3 mph 88% 0 in 0.00 W/m2
07:09 33 °F 29.8 °F 29.95 in South 6 mph 3.8 mph 88% 0 in 0.00 W/m2
07:14 33.2 °F 30.3 °F 29.95 in South 5.8 mph 3.4 mph 89% 0 in 0.00 W/m2
07:19 33.4 °F 30.5 °F 29.95 in SSE 8.1 mph 4.7 mph 89% 0 in 5.00 W/m2
07:24 33.5 °F 30.3 °F 29.95 in SSE 5.8 mph 2.8 mph 88% 0 in 5.00 W/m2
07:29 33.4 °F 30.5 °F 29.95 in SSE 5.8 mph 3.9 mph 89% 0 in 7.00 W/m2
07:34 33.3 °F 30.4 °F 29.95 in SSE 7 mph 4.8 mph 89% 0 in 9.00 W/m2
07:39 33.5 °F 30.6 °F 29.95 in SSE 8.1 mph 5.5 mph 89% 0 in 12.00 W/m2
07:44 33.8 °F 30.9 °F 29.95 in SSE 8.1 mph 3 mph 89% 0 in 18.00 W/m2
07:49 34.1 °F 30.9 °F 29.95 in South 6.9 mph 4.6 mph 88% 0 in 21.00 W/m2
07:54 34 °F 30.8 °F 29.94 in South 6 mph 4.8 mph 88% 0 in 26.00 W/m2
07:59 34.2 °F 31 °F 29.94 in South 6.9 mph 4 mph 88% 0 in 30.00 W/m2
08:04 34.3 °F 31.1 °F 29.95 in South 4.6 mph 3.4 mph 88% 0 in 30.00 W/m2
08:09 34.4 °F 31.2 °F 29.94 in South 5 mph 5.2 mph 88% 0 in 30.00 W/m2
08:14 34.5 °F 31.3 °F 29.94 in SSE 4.6 mph 3.2 mph 88% 0 in 37.00 W/m2
08:19 34.6 °F 31.4 °F 29.95 in South 4 mph 3.2 mph 88% 0 in 46.00 W/m2
08:24 34.7 °F 31.5 °F 29.94 in North 5.8 mph 4.7 mph 88% 0 in 58.00 W/m2
08:29 35 °F 31.8 °F 29.94 in SSE 4.6 mph 2.9 mph 88% 0 in 74.00 W/m2
08:34 35.2 °F 32 °F 29.95 in SSE 3.5 mph 2.8 mph 88% 0 in 105.00 W/m2
08:39 35.5 °F 32.3 °F 29.95 in SSE 3.5 mph 3 mph 88% 0 in 163.00 W/m2
08:44 36 °F 32.8 °F 29.95 in SSE 5.8 mph 3.3 mph 88% 0 in 98.00 W/m2
08:49 35.9 °F 32.4 °F 29.95 in SSE 5.8 mph 3.1 mph 87% 0 in 107.00 W/m2
08:54 36 °F 32.8 °F 29.95 in SSE 5.8 mph 4.4 mph 88% 0 in 104.00 W/m2
08:59 36 °F 32.8 °F 29.95 in SSE 3.5 mph 1.4 mph 88% 0 in 104.00 W/m2
09:04 36 °F 32.8 °F 29.95 in South 4.6 mph 2.6 mph 88% 0 in 107.00 W/m2
09:09 36.3 °F 32.8 °F 29.94 in South 5.8 mph 4.6 mph 87% 0 in 109.00 W/m2
09:14 36.6 °F 33.1 °F 29.94 in South 7 mph 4.5 mph 87% 0 in 105.00 W/m2
09:19 36.8 °F 32.7 °F 29.94 in SSE 6.9 mph 4.1 mph 85% 0 in 97.00 W/m2
09:24 36.9 °F 32.8 °F 29.94 in SSE 8.1 mph 4.7 mph 85% 0 in 185.00 W/m2
09:29 37.3 °F 33.2 °F 29.94 in SSE 5.8 mph 4.3 mph 85% 0 in 156.00 W/m2
09:34 37.5 °F 33.1 °F 29.94 in North 6 mph 3.9 mph 84% 0 in 144.00 W/m2
09:39 37.9 °F 33.5 °F 29.94 in South 5.8 mph 3.4 mph 84% 0 in 248.00 W/m2
09:44 38.6 °F 34.2 °F 29.94 in South 9.2 mph 4.9 mph 84% 0 in 276.00 W/m2
09:49 39.3 °F 34.6 °F 29.93 in SSE 8.1 mph 5.2 mph 83% 0 in 260.00 W/m2
09:54 39.8 °F 34.4 °F 29.93 in SSE 8.1 mph 6.5 mph 81% 0 in 306.00 W/m2
09:59 40.2 °F 34.5 °F 29.93 in SSE 12.7 mph 6.7 mph 80% 0 in 343.00 W/m2
10:04 40.8 °F 35.1 °F 29.93 in SSE 11 mph 7.8 mph 80% 0 in 343.00 W/m2
10:09 41.1 °F 34.8 °F 29.92 in North 9.2 mph 6.4 mph 78% 0 in 355.00 W/m2
10:14 41.4 °F 35.1 °F 29.92 in SSE 12.7 mph 6.7 mph 78% 0 in 348.00 W/m2
10:19 41.5 °F 35.2 °F 29.92 in SSE 10.4 mph 6.8 mph 78% 0 in 352.00 W/m2
10:24 41.8 °F 35.1 °F 29.91 in South 10.4 mph 6.5 mph 77% 0 in 388.00 W/m2
10:29 42.2 °F 35.5 °F 29.91 in SW 11.5 mph 7.6 mph 77% 0 in 381.00 W/m2
10:34 42.5 °F 35.8 °F 29.91 in South 8.1 mph 5.8 mph 77% 0 in 403.00 W/m2
10:39 42.6 °F 35.9 °F 29.91 in South 11.5 mph 5.5 mph 77% 0 in 394.00 W/m2
10:44 43.1 °F 36.4 °F 29.91 in SSE 9 mph 5.2 mph 77% 0 in 406.00 W/m2
10:49 43.4 °F 36.3 °F 29.90 in SSE 10.4 mph 6.8 mph 76% 0 in 413.00 W/m2
10:54 43.6 °F 36.2 °F 29.90 in SSE 11.5 mph 5.8 mph 75% 0 in 415.00 W/m2
10:59 44 °F 36.9 °F 29.90 in South 9.2 mph 3.9 mph 76% 0 in 418.00 W/m2
11:04 44.5 °F 37.4 °F 29.89 in North 10.4 mph 4.6 mph 76% 0 in 424.00 W/m2
11:09 44.7 °F 37.3 °F 29.89 in SSE 9.2 mph 5.4 mph 75% 0 in 429.00 W/m2
11:14 45 °F 37.2 °F 29.89 in SSE 10.4 mph 6.6 mph 74% 0 in 432.00 W/m2
11:19 45.1 °F 37.3 °F 29.89 in SSW 11.5 mph 6.5 mph 74% 0 in 427.00 W/m2
11:24 45.3 °F 37.5 °F 29.88 in South 8.1 mph 6.3 mph 74% 0 in 383.00 W/m2
11:29 45.5 °F 37.3 °F 29.88 in South 11.5 mph 6.5 mph 73% 0 in 455.00 W/m2
11:34 45.7 °F 37.5 °F 29.88 in North 10.4 mph 7 mph 73% 0 in 434.00 W/m2
11:39 46 °F 38.2 °F 29.88 in South 10.4 mph 7.5 mph 74% 0 in 466.00 W/m2
11:44 46 °F 37.8 °F 29.88 in South 10.4 mph 7.5 mph 73% 0 in 381.00 W/m2
11:49 46.2 °F 38.4 °F 29.87 in South 13 mph 8 mph 74% 0 in 469.00 W/m2
11:54 46.4 °F 38.6 °F 29.87 in South 12.7 mph 6 mph 74% 0 in 455.00 W/m2
11:59 46.6 °F 38.4 °F 29.86 in North 12.7 mph 6.6 mph 73% 0 in 420.00 W/m2
12:04 46.8 °F 38.9 °F 29.86 in South 10.4 mph 5.5 mph 74% 0 in 436.00 W/m2
12:09 47.2 °F 39.3 °F 29.86 in SSW 11.5 mph 6.5 mph 74% 0 in 438.00 W/m2
12:14 47.3 °F 39.1 °F 29.86 in South 12.7 mph 7.1 mph 73% 0 in 397.00 W/m2
12:19 47.4 °F 39.5 °F 29.86 in SSW 10.4 mph 4.9 mph 74% 0 in 436.00 W/m2
12:24 47.7 °F 39.8 °F 29.85 in North 10.4 mph 7.2 mph 74% 0 in 330.00 W/m2
12:29 47.5 °F 39.3 °F 29.85 in North 11.5 mph 6.8 mph 73% 0 in 299.00 W/m2
12:34 47.2 °F 39.3 °F 29.85 in South 10.4 mph 4 mph 74% 0 in 392.00 W/m2
12:39 47.5 °F 40 °F 29.84 in SSE 8 mph 5.1 mph 75% 0 in 327.00 W/m2
12:44 47.7 °F 39.8 °F 29.84 in South 8.1 mph 7.5 mph 74% 0 in 255.00 W/m2
12:49 47.5 °F 39.6 °F 29.84 in South 11.5 mph 5.4 mph 74% 0 in 262.00 W/m2
12:54 47.4 °F 39.9 °F 29.84 in South 9.2 mph 3.7 mph 75% 0 in 288.00 W/m2
12:59 47.7 °F 39.8 °F 29.84 in South 11.5 mph 4.5 mph 74% 0 in 309.00 W/m2
13:04 48 °F 40.5 °F 29.84 in North 6.9 mph 6 mph 75% 0 in 316.00 W/m2
13:09 48 °F 40.5 °F 29.84 in South 12.7 mph 6.3 mph 75% 0 in 287.00 W/m2
13:14 47.9 °F 40.7 °F 29.83 in South 11.5 mph 4.2 mph 76% 0 in 197.00 W/m2
13:19 48 °F 40.8 °F 29.83 in SSE 11 mph 5.4 mph 76% 0 in 156.00 W/m2
13:24 48.2 °F 41.3 °F 29.83 in South 6.9 mph 6.9 mph 77% 0 in 250.00 W/m2
13:29 48.6 °F 41.7 °F 29.83 in South 11.5 mph 7.1 mph 77% 0 in 329.00 W/m2
13:34 49 °F 42.1 °F 29.82 in North 9.2 mph 4.3 mph 77% 0 in 209.00 W/m2
13:39 49 °F 42.1 °F 29.82 in SSW 10.4 mph 6.6 mph 77% 0 in 100.00 W/m2
13:44 48.8 °F 41.9 °F 29.82 in South 12.7 mph 6.6 mph 77% 0 in 186.00 W/m2
13:49 48.8 °F 42.6 °F 29.82 in South 8.1 mph 4.6 mph 79% 0 in 190.00 W/m2
13:54 48.8 °F 42.2 °F 29.82 in North 13.8 mph 7.1 mph 78% 0 in 127.00 W/m2
13:59 48.5 °F 42.3 °F 29.82 in North 11.5 mph 6.7 mph 79% 0 in 107.00 W/m2
14:04 48.4 °F 42.5 °F 29.82 in South 11.5 mph 5.7 mph 80% 0 in 132.00 W/m2
14:09 48.3 °F 42.1 °F 29.82 in North 10.4 mph 5.9 mph 79% 0 in 130.00 W/m2
14:14 48.3 °F 42.1 °F 29.82 in SSW 11.5 mph 6.1 mph 79% 0 in 130.00 W/m2
14:19 48.2 °F 42.3 °F 29.82 in SSW 12.7 mph 5.7 mph 80% 0 in 139.00 W/m2
14:24 48.3 °F 42.4 °F 29.82 in South 9.2 mph 6.3 mph 80% 0 in 134.00 W/m2
14:29 48.5 °F 42.6 °F 29.81 in South 10.4 mph 7.7 mph 80% 0 in 169.00 W/m2
14:34 48.6 °F 42.7 °F 29.81 in North 10.4 mph 6.3 mph 80% 0 in 109.00 W/m2
14:39 48.7 °F 42.8 °F 29.81 in SSW 6.9 mph 5 mph 80% 0 in 134.00 W/m2
14:44 48.6 °F 42.7 °F 29.81 in South 9.2 mph 7 mph 80% 0 in 93.00 W/m2
14:49 48.5 °F 42.6 °F 29.81 in North 12.7 mph 8.2 mph 80% 0 in 123.00 W/m2
14:54 48.5 °F 42.6 °F 29.81 in North 12.7 mph 6.7 mph 80% 0 in 95.00 W/m2
14:59 48.5 °F 42.6 °F 29.80 in North 11.5 mph 5.2 mph 80% 0 in 156.00 W/m2
15:04 48.3 °F 42.4 °F 29.80 in SSE 8.1 mph 7 mph 80% 0 in 149.00 W/m2
15:09 48.1 °F 42.5 °F 29.80 in SSE 10.4 mph 6.4 mph 81% 0 in 125.00 W/m2
15:14 47.8 °F 42.3 °F 29.80 in SSW 11 mph 8.3 mph 81% 0 in 79.00 W/m2
15:19 47.3 °F 42.1 °F 29.80 in SSE 10.4 mph 6.6 mph 82% 0 in 44.00 W/m2
15:24 46.7 °F 41.5 °F 29.80 in South 10.4 mph 5.9 mph 82% 0 in 39.00 W/m2
15:29 46.1 °F 41.2 °F 29.80 in SSE 10.4 mph 7 mph 83% 0 in 32.00 W/m2
15:34 45.7 °F 40.8 °F 29.80 in North 11.5 mph 6.7 mph 83% 0 in 30.00 W/m2
15:39 45.3 °F 40.4 °F 29.80 in South 10.4 mph 6.6 mph 83% 0 in 30.00 W/m2
15:44 45 °F 40.1 °F 29.80 in North 8.1 mph 5.7 mph 83% 0 in 32.00 W/m2
15:49 44.7 °F 40.2 °F 29.80 in SSE 9.2 mph 6.5 mph 84% 0 in 32.00 W/m2
15:54 44.4 °F 39.9 °F 29.80 in SSE 6.9 mph 4.5 mph 84% 0 in 30.00 W/m2
15:59 44.1 °F 39.9 °F 29.80 in South 7 mph 5.7 mph 85% 0 in 25.00 W/m2
16:04 43.9 °F 40 °F 29.80 in SSE 10.4 mph 6.9 mph 86% 0 in 19.00 W/m2
16:09 43.8 °F 39.6 °F 29.80 in North 8.1 mph 7 mph 85% 0 in 14.00 W/m2
16:14 43.7 °F 39.5 °F 29.81 in SSE 8 mph 5.9 mph 85% 0 in 9.00 W/m2
16:19 43.4 °F 39.2 °F 29.81 in South 8.1 mph 6.3 mph 85% 0 in 5.00 W/m2
16:24 43.3 °F 39.4 °F 29.81 in South 8.1 mph 5.3 mph 86% 0 in 0.00 W/m2
16:29 42.9 °F 39 °F 29.80 in SSE 8 mph 4.9 mph 86% 0 in 0.00 W/m2
16:34 42.6 °F 38.7 °F 29.81 in South 6.9 mph 3.8 mph 86% 0 in 0.00 W/m2
16:39 42.3 °F 38.7 °F 29.81 in SSE 4.6 mph 3.9 mph 87% 0 in 0.00 W/m2
16:44 42 °F 38.4 °F 29.81 in South 4.6 mph 3.4 mph 87% 0 in 0.00 W/m2
16:49 41.7 °F 38.1 °F 29.81 in SSE 5.8 mph 4.4 mph 87% 0 in 0.00 W/m2
16:54 41.2 °F 37.9 °F 29.81 in SSE 5.8 mph 4.7 mph 88% 0 in 0.00 W/m2
16:59 40.9 °F 37.6 °F 29.81 in SSE 6.9 mph 4.6 mph 88% 0 in 0.00 W/m2
17:04 40.8 °F 37.8 °F 29.81 in SSE 4.6 mph 4.7 mph 89% 0 in 0.00 W/m2
17:09 40.8 °F 37.8 °F 29.81 in SSE 4.6 mph 3.5 mph 89% 0 in 0.00 W/m2
17:14 40.9 °F 37.9 °F 29.81 in SSE 4 mph 2.9 mph 89% 0 in 0.00 W/m2
17:19 40.8 °F 37.8 °F 29.81 in South 6 mph 3.6 mph 89% 0 in 0.00 W/m2
17:24 40.7 °F 37.7 °F 29.80 in SSE 4.6 mph 3.2 mph 89% 0 in 0.00 W/m2
17:29 40.6 °F 37.6 °F 29.80 in SSE 3.5 mph 3.2 mph 89% 0 in 0.00 W/m2
17:34 40.4 °F 37.4 °F 29.80 in South 3.5 mph 2.9 mph 89% 0 in 0.00 W/m2
17:39 40.4 °F 37.7 °F 29.80 in South 5.8 mph 3.9 mph 90% 0 in 0.00 W/m2
17:44 40.4 °F 37.4 °F 29.80 in SSE 4 mph 3.2 mph 89% 0 in 0.00 W/m2
17:49 40.2 °F 37.5 °F 29.80 in SSE 4 mph 2.7 mph 90% 0 in 0.00 W/m2
17:54 40.2 °F 37.5 °F 29.80 in South 3.5 mph 1.6 mph 90% 0 in 0.00 W/m2
17:59 40.2 °F 37.5 °F 29.81 in South 3.5 mph 1.4 mph 90% 0 in 0.00 W/m2
18:04 39.8 °F 36.8 °F 29.81 in South 2 mph 1 mph 89% 0 in 0.00 W/m2
18:09 39.3 °F 36.3 °F 29.81 in South 2.3 mph 0.9 mph 89% 0 in 0.00 W/m2
18:14 39.4 °F 37 °F 29.81 in South 3.5 mph 2.2 mph 91% 0 in 0.00 W/m2
18:19 39.5 °F 37.1 °F 29.81 in South 3.5 mph 3.1 mph 91% 0 in 0.00 W/m2
18:24 39.5 °F 37.1 °F 29.81 in South 4.6 mph 3.1 mph 91% 0 in 0.00 W/m2
18:29 39.5 °F 37.1 °F 29.81 in SSE 4 mph 4 mph 91% 0 in 0.00 W/m2
18:34 39.7 °F 37.3 °F 29.81 in SSE 3.5 mph 3.1 mph 91% 0 in 0.00 W/m2
18:39 39.5 °F 36.8 °F 29.81 in South 5 mph 2.7 mph 90% 0 in 0.00 W/m2
18:44 39.2 °F 36.5 °F 29.80 in SSE 5.8 mph 4 mph 90% 0 in 0.00 W/m2
18:49 39.1 °F 36.7 °F 29.80 in SSE 5.8 mph 3.9 mph 91% 0 in 0.00 W/m2
18:54 39.3 °F 36.9 °F 29.80 in SSE 5.8 mph 3.9 mph 91% 0 in 0.00 W/m2
18:59 39.3 °F 36.9 °F 29.80 in SSE 5.8 mph 3.4 mph 91% 0 in 0.00 W/m2
19:04 39.3 °F 36.6 °F 29.80 in South 4.6 mph 3.3 mph 90% 0 in 0.00 W/m2
19:09 39.3 °F 36.6 °F 29.79 in South 3.5 mph 2.1 mph 90% 0 in 0.00 W/m2
19:14 39.1 °F 36.4 °F 29.80 in South 3.5 mph 2.2 mph 90% 0 in 0.00 W/m2
19:19 38.8 °F 35.8 °F 29.79 in South 1.2 mph 0.5 mph 89% 0 in 0.00 W/m2
19:24 38.4 °F 35.4 °F 29.79 in Calm     89% 0 in 0.00 W/m2
19:29 38.2 °F 35.2 °F 29.79 in South 1 mph 0.5 mph 89% 0 in 0.00 W/m2
19:34 38 °F 35.3 °F 29.79 in South 3.5 mph 1.9 mph 90% 0 in 0.00 W/m2
19:39 38 °F 35.3 °F 29.80 in South 5.8 mph 3.7 mph 90% 0 in 0.00 W/m2
19:44 38.3 °F 35.9 °F 29.79 in South 3.5 mph 1.9 mph 91% 0 in 0.00 W/m2
19:49 38.4 °F 35.7 °F 29.79 in South 2.3 mph 2.2 mph 90% 0 in 0.00 W/m2
19:54 38.6 °F 35.9 °F 29.79 in South 4.6 mph 3.6 mph 90% 0 in 0.00 W/m2
19:59 38.9 °F 36.2 °F 29.79 in South 5.8 mph 4.2 mph 90% 0 in 0.00 W/m2
20:04 39.4 °F 36.7 °F 29.79 in SSE 5.8 mph 4 mph 90% 0 in 0.00 W/m2
20:09 39.5 °F 36.5 °F 29.79 in SSE 6.9 mph 4.5 mph 89% 0 in 0.00 W/m2
20:14 39.6 °F 36.6 °F 29.78 in SSE 5.8 mph 4.4 mph 89% 0 in 0.00 W/m2
20:19 39.7 °F 36.7 °F 29.78 in South 4.6 mph 4 mph 89% 0 in 0.00 W/m2
20:24 39.7 °F 36.7 °F 29.78 in SSE 6.9 mph 4.4 mph 89% 0 in 0.00 W/m2
20:29 39.6 °F 36.6 °F 29.78 in SSE 5.8 mph 4.4 mph 89% 0 in 0.00 W/m2
20:34 39.4 °F 36.4 °F 29.78 in SSE 6 mph 4.7 mph 89% 0 in 0.00 W/m2
20:39 39.2 °F 36.2 °F 29.78 in SSE 6.9 mph 4.4 mph 89% 0 in 0.00 W/m2
20:44 39.1 °F 36.4 °F 29.78 in SSE 4.6 mph 3.8 mph 90% 0 in 0.00 W/m2
20:49 38.8 °F 36.1 °F 29.78 in SSE 4.6 mph 4.5 mph 90% 0 in 0.00 W/m2
20:54 38.8 °F 36.1 °F 29.77 in South 5.8 mph 4.1 mph 90% 0 in 0.00 W/m2
20:59 38.7 °F 36 °F 29.77 in South 5.8 mph 4.4 mph 90% 0 in 0.00 W/m2
21:04 38.9 °F 36.5 °F 29.77 in South 6.9 mph 5.2 mph 91% 0 in 0.00 W/m2
21:09 38.9 °F 36.2 °F 29.77 in South 5.8 mph 4.3 mph 90% 0 in 0.00 W/m2
21:14 38.9 °F 36.2 °F 29.77 in SSE 8.1 mph 4.7 mph 90% 0 in 0.00 W/m2
21:19 39 °F 36.3 °F 29.77 in SSE 5 mph 4.4 mph 90% 0 in 0.00 W/m2
21:24 39.3 °F 36.9 °F 29.77 in SSE 6.9 mph 6 mph 91% 0 in 0.00 W/m2
21:29 39.8 °F 37.4 °F 29.77 in SSE 8.1 mph 4.9 mph 91% 0 in 0.00 W/m2
21:34 40.2 °F 37.5 °F 29.77 in South 9.2 mph 6.3 mph 90% 0 in 0.00 W/m2
21:39 40.7 °F 37.7 °F 29.77 in SSE 11.5 mph 7.1 mph 89% 0 in 0.00 W/m2
21:44 41.1 °F 37.8 °F 29.77 in South 11.5 mph 6.7 mph 88% 0 in 0.00 W/m2
21:49 41.4 °F 37.8 °F 29.77 in SSE 11.5 mph 7.7 mph 87% 0 in 0.00 W/m2
21:54 41.5 °F 37.9 °F 29.77 in SSE 10.4 mph 6.8 mph 87% 0 in 0.00 W/m2
21:59 41.5 °F 37.9 °F 29.77 in SSE 10.4 mph 7.7 mph 87% 0 in 0.00 W/m2
22:04 41.5 °F 37.9 °F 29.77 in SSE 10.4 mph 7.3 mph 87% 0 in 0.00 W/m2
22:09 41.6 °F 37.7 °F 29.77 in SSE 11.5 mph 6.5 mph 86% 0 in 0.00 W/m2
22:14 41.5 °F 37.6 °F 29.77 in SSE 11.5 mph 7.4 mph 86% 0 in 0.00 W/m2
22:19 41.5 °F 37.6 °F 29.77 in SSE 9.2 mph 6.9 mph 86% 0 in 0.00 W/m2
22:24 41.4 °F 37.8 °F 29.77 in SSE 11.5 mph 7.9 mph 87% 0 in 0.00 W/m2
22:29 41.4 °F 37.8 °F 29.77 in SSE 9.2 mph 6.1 mph 87% 0 in 0.00 W/m2
22:34 41.5 °F 38.2 °F 29.77 in South 9 mph 4.6 mph 88% 0 in 0.00 W/m2
22:39 41.9 °F 38.6 °F 29.76 in SSE 8.1 mph 4.9 mph 88% 0 in 0.00 W/m2
22:44 42.4 °F 38.8 °F 29.76 in SSW 5.8 mph 3.3 mph 87% 0 in 0.00 W/m2
22:49 42.7 °F 39.1 °F 29.77 in SSW 6 mph 4.3 mph 87% 0 in 0.00 W/m2
22:54 42.9 °F 39 °F 29.77 in SSW 4.6 mph 2.4 mph 86% 0 in 0.00 W/m2
22:59 43.1 °F 39.2 °F 29.77 in SSW 4.6 mph 1.7 mph 86% 0 in 0.00 W/m2
23:04 43.1 °F 39.2 °F 29.77 in South 3.5 mph 1.4 mph 86% 0 in 0.00 W/m2
23:09 43.1 °F 39.2 °F 29.77 in South 3.5 mph 1.5 mph 86% 0 in 0.00 W/m2
23:14 43.1 °F 39.2 °F 29.77 in South 4.6 mph 1.8 mph 86% 0 in 0.00 W/m2
23:19 43.1 °F 39.2 °F 29.77 in SSW 6.9 mph 1.6 mph 86% 0 in 0.00 W/m2
23:24 43.1 °F 39.2 °F 29.77 in SSW 3.5 mph 2.7 mph 86% 0 in 0.00 W/m2
23:29 43.1 °F 39.2 °F 29.77 in SSW 4 mph 1.6 mph 86% 0 in 0.00 W/m2
23:34 43 °F 39.1 °F 29.77 in South 4 mph 3.2 mph 86% 0 in 0.00 W/m2
23:39 42.8 °F 38.9 °F 29.77 in South 4.6 mph 2.9 mph 86% 0 in 0.00 W/m2
23:44 42.7 °F 38.8 °F 29.76 in South 5.8 mph 2.7 mph 86% 0 in 0.00 W/m2
23:49 42.5 °F 38.6 °F 29.76 in South 6 mph 3.8 mph 86% 0 in 0.00 W/m2
23:54 42.3 °F 38.7 °F 29.77 in South 4 mph 3.1 mph 87% 0 in 0.00 W/m2
23:59 42.2 °F 38.6 °F 29.76 in SSW 3.5 mph 1.6 mph 87% 0 in 0.00 W/m2
Bourbonnais, Illinois, USA
Compliments of Weather Underground - 4 mb